Latest Weather Observations for Tindal

IDD60801

Issued at 9:31 pm CST Saturday 28 February 2015 (issued every 30 minutes, with the page automatically refreshed every 10 minutes)

About weather observations | Map of weather stations | Latest weather observations for NT | Other Formats
Station Details ID: 014932 Name: TINDAL RAAF Lat: -14.52 Lon: 132.38 Height: 133.6 m
Data from the previous 72 hours. | See also: Recent months at Tindal
Date/Time
CST
Temp
°C
App
Temp
°C
Dew
Point
Rel
Hum
%
Delta-T
°C
Wind Press
QNH
hPa
Press
MSL
hPa
Rain
since 9 am
mm
Dir
 
Spd
km/h
Gust
km/h
Spd
kts
Gust
kts
28/09:30pm 29.2 33.8 24.7 77 3.2 W 9 11 5 6 1006.5 - 0.0
28/09:00pm 30.0 34.5 24.6 73 3.8 NNW 9 11 5 6 1006.5 1005.6 0.0
28/08:30pm 29.7 35.0 24.3 73 3.8 W 4 6 2 3 1005.8 - 0.0
28/08:00pm 30.3 34.8 24.0 69 4.4 NW 7 9 4 5 1005.2 - 0.0
28/07:30pm 31.1 35.4 24.2 66 4.8 NNW 9 9 5 5 1004.3 - 0.0
28/07:00pm 32.0 35.4 23.3 60 6.1 NNW 11 13 6 7 1004.0 - 0.0
28/06:30pm 35.1 39.5 23.4 50 8.2 WSW 6 9 3 5 1003.9 - 0.0
28/06:00pm 35.7 39.4 21.5 43 9.7 WSW 4 7 2 4 1004.0 1003.0 0.0
28/05:30pm 35.5 39.1 22.1 45 9.2 W 6 9 3 5 1004.0 - 0.0
28/05:00pm 35.7 38.9 22.3 46 9.3 WSW 9 13 5 7 1004.0 - 0.0
28/04:30pm 35.6 38.5 21.8 44 9.5 SW 9 13 5 7 1004.1 - 0.0
28/04:00pm 35.2 38.5 21.8 45 9.2 SW 7 11 4 6 1004.3 - 0.0
28/03:30pm 35.1 38.3 21.7 45 9.2 S 7 13 4 7 1004.6 - 0.0
28/03:00pm 34.8 37.3 21.1 44 9.3 W 9 11 5 6 1005.1 1004.1 0.0
28/02:30pm 34.2 37.0 21.6 47 8.6 SE 9 15 5 8 1005.5 - 0.0
28/02:00pm 33.8 36.0 21.2 47 8.5 SSW 11 19 6 10 1006.0 - 0.0
28/01:30pm 33.9 37.1 22.3 50 8.0 S 9 13 5 7 1006.5 - 0.0
28/01:00pm 32.8 35.2 21.6 51 7.6 SSW 11 19 6 10 1007.1 - 0.0
28/12:30pm 32.5 36.2 23.2 58 6.5 SSW 9 17 5 9 1007.4 - 0.0
28/12:00pm 31.6 35.6 23.7 63 5.5 W 9 15 5 8 1007.4 1006.5 0.0
28/11:30am 31.2 35.1 23.6 64 5.3 WSW 9 17 5 9 1007.7 - 0.0
28/11:00am 30.3 34.3 23.7 68 4.6 W 9 15 5 8 1008.3 - 0.0
28/10:30am 29.8 33.2 24.0 71 4.0 W 13 17 7 9 1008.9 - 0.0
28/10:00am 29.0 33.1 23.9 74 3.5 SW 9 17 5 9 1009.0 - 0.0
28/09:30am 28.2 32.8 23.8 77 3.0 W 6 11 3 6 1009.1 - 0.0
28/09:00am 26.7 31.0 23.6 83 2.1 WNW 7 9 4 5 1008.9 1007.9 5.0
28/08:30am 25.8 30.2 23.5 87 1.6 NW 6 7 3 4 1008.6 - 5.0
28/08:00am 24.5 28.7 23.1 92 1.0 NNW 6 7 3 4 1008.1 - 5.0
28/07:30am 24.0 28.1 23.0 94 0.7 NNW 6 7 3 4 1007.7 - 5.0
28/07:00am 23.7 28.0 22.7 94 0.7 NW 4 6 2 3 1007.1 - 5.0
28/06:30am 23.6 27.8 22.4 93 0.8 N 4 6 2 3 1006.7 - 5.0
28/06:00am 23.6 27.2 22.4 93 0.8 N 7 9 4 5 1006.2 1005.3 5.0
28/05:30am 23.6 27.2 22.4 93 0.8 NNE 7 9 4 5 1006.3 - 5.0
28/05:00am 23.6 27.4 22.4 93 0.8 ENE 6 7 3 4 1006.5 - 5.0
28/04:30am 23.6 26.7 22.2 92 0.9 NNE 9 13 5 7 1007.0 - 5.0
28/04:00am 23.5 26.4 21.8 90 1.1 NW 9 13 5 7 1007.3 - 5.0
28/03:30am 23.7 25.2 22.0 90 1.1 SW 17 22 9 12 1007.8 - 5.0
28/03:11am 24.1 24.9 22.5 91 1.1 S 22 33 12 18 1008.3 - 4.8
28/03:00am 24.1 23.2 22.9 93 0.8 S 32 43 17 23 1008.2 1007.3 4.8
28/02:52am 24.1 24.9 23.1 94 0.7 S 24 33 13 18 1008.6 - 4.6
28/02:30am 24.3 27.9 23.1 93 0.8 S 9 15 5 8 1008.7 - 4.0
28/02:00am 24.4 29.1 22.7 90 1.1 NE 2 6 1 3 1008.1 - 3.6
28/01:30am 24.4 28.8 22.8 91 1.1 WSW 4 9 2 5 1007.9 - 3.6
28/01:00am 24.4 28.8 22.8 91 1.1 NW 4 9 2 5 1008.0 - 3.6
28/12:30am 24.4 27.9 22.8 91 1.1 WNW 9 11 5 6 1007.6 - 3.6
28/12:00am 24.6 28.1 22.8 90 1.2 NW 9 13 5 7 1009.0 1008.0 3.6
 
Date/Time
CST
Temp
°C
App
Temp
°C
Dew
Point
Rel
Hum
%
Delta-T
°C
Wind Press
QNH
hPa
Press
MSL
hPa
Rain
since 9 am
mm
Dir
 
Spd
km/h
Gust
km/h
Spd
kts
Gust
kts
27/11:30pm 24.7 27.9 23.1 91 1.1 NW 11 15 6 8 1009.1 - 3.6
27/11:00pm 25.0 29.1 22.9 88 1.4 W 6 7 3 4 1009.3 - 3.6
27/10:30pm 25.0 27.5 22.5 86 1.7 NNW 13 17 7 9 1008.5 - 3.6
27/10:00pm 25.0 27.4 22.3 85 1.8 NNW 13 17 7 9 1008.6 - 3.6
27/09:30pm 25.4 25.5 21.9 81 2.3 NNW 24 33 13 18 1008.3 - 3.6
27/09:00pm 25.4 24.9 22.1 82 2.2 NNW 28 35 15 19 1007.5 1006.6 3.6
27/08:58pm 25.5 25.0 22.2 82 2.2 NNW 28 35 15 19 1007.4 - 3.6
27/08:30pm 24.7 28.3 22.4 87 1.5 WSW 7 15 4 8 1007.1 - 3.6
27/08:01pm 25.1 26.5 22.8 87 1.6 NNW 20 28 11 15 1005.9 - 3.6
27/08:00pm 25.2 26.6 22.9 87 1.6 NNW 20 28 11 15 1005.8 - 3.6
27/07:38pm 25.6 29.1 23.5 88 1.4 NE 11 19 6 10 1006.2 - 2.2
27/07:30pm 25.8 28.8 23.3 86 1.7 NW 13 19 7 10 1005.8 - 0.8
27/07:00pm 25.6 26.4 23.1 86 1.7 WSW 24 32 13 17 1004.8 - 0.8
27/06:30pm 26.4 28.3 23.7 85 1.9 WSW 20 32 11 17 1004.4 - 0.8
27/06:13pm 27.2 27.9 21.5 71 3.8 WSW 20 26 11 14 1004.0 - 0.8
27/06:00pm 27.2 26.4 21.7 72 3.7 SE 28 39 15 21 1003.5 1002.5 0.6
27/05:58pm 27.2 26.8 22.4 75 3.3 SE 28 39 15 21 1003.6 - 0.4
27/05:51pm 30.9 31.6 23.0 62 5.4 SE 24 33 13 18 1003.5 - 0.2
27/05:30pm 36.0 40.1 23.2 47 8.9 WSW 7 11 4 6 1002.9 - 0.0
27/05:00pm 36.2 40.4 24.1 49 8.6 SW 9 15 5 8 1003.1 - 0.0
27/04:30pm 35.4 38.8 24.0 51 8.0 SW 13 19 7 10 1003.0 - 0.0
27/04:00pm 35.8 40.0 23.4 48 8.7 W 7 11 4 6 1003.3 - 0.0
27/03:30pm 35.9 39.9 23.8 49 8.5 NW 9 17 5 9 1003.7 - 0.0
27/03:00pm 35.5 39.5 23.8 50 8.3 WSW 9 20 5 11 1004.0 1003.0 0.0
27/02:30pm 34.2 39.0 24.2 56 7.0 WSW 6 11 3 6 1004.5 - 0.0
27/02:00pm 35.2 39.1 24.8 55 7.4 NW 13 17 7 9 1005.1 - 0.0
27/01:30pm 33.8 38.0 23.5 55 7.2 WSW 7 20 4 11 1005.8 - 0.0
27/01:00pm 34.1 37.3 23.1 52 7.6 WNW 11 19 6 10 1006.3 - 0.0
27/12:30pm 34.2 37.9 23.9 55 7.2 WSW 11 17 6 9 1006.8 - 0.0
27/12:00pm 34.1 38.1 23.8 55 7.2 SW 9 19 5 10 1007.3 1006.4 0.0
27/11:30am 33.0 37.1 23.9 59 6.4 W 9 19 5 10 1007.8 - 0.0
27/11:00am 32.6 35.9 23.8 59 6.2 SW 13 20 7 11 1008.2 - 0.0
27/10:30am 31.7 35.0 23.8 63 5.5 SW 13 20 7 11 1008.5 - 0.0
27/10:00am 30.6 35.0 24.5 70 4.3 SW 9 15 5 8 1008.7 - 0.0
27/09:30am 30.2 33.6 24.6 72 3.9 WSW 15 20 8 11 1008.8 - 0.0
27/09:00am 29.2 33.3 24.5 76 3.3 W 11 - 6 - - 1007.7 0.2
27/08:51am 28.6 32.2 24.4 78 2.9 W 13 17 7 9 1008.6 - 0.2
27/08:30am 28.1 32.4 24.9 83 2.2 W 11 15 6 8 1008.5 - 0.2
27/08:02am 27.3 31.4 24.6 85 1.9 WNW 11 15 6 8 1008.0 - 0.2
27/07:30am 26.4 30.0 24.4 89 1.4 NW 13 19 7 10 1007.7 - 0.2
27/07:00am 25.8 30.4 24.2 91 1.1 NW 7 9 4 5 1007.5 - 0.2
27/06:30am 25.9 30.6 24.3 91 1.1 W 7 9 4 5 1007.7 - 0.2
27/06:00am 25.8 30.6 24.2 91 1.1 NNW 6 9 3 5 1007.5 1006.6 0.2
27/05:30am 25.9 30.2 24.3 91 1.1 NNW 9 11 5 6 1007.1 - 0.2
27/05:00am 25.9 30.6 24.3 91 1.1 NW 7 9 4 5 1007.1 - 0.2
27/04:30am 26.0 30.3 24.2 90 1.2 WNW 9 11 5 6 1007.1 - 0.2
27/04:21am 25.9 30.2 24.3 91 1.1 NW 9 11 5 6 1007.0 - 0.2
27/04:00am 25.8 29.9 24.0 90 1.2 WNW 9 13 5 7 1006.6 - 0.2
27/03:30am 26.0 29.8 24.0 89 1.4 WNW 11 15 6 8 1006.4 - 0.2
27/03:00am 26.3 29.7 24.0 87 1.6 WNW 13 19 7 10 1006.7 1005.8 0.2
27/02:30am 26.3 29.7 24.0 87 1.6 NW 13 17 7 9 1007.0 - 0.2
27/02:00am 26.3 29.4 23.6 85 1.9 NNW 13 19 7 10 1007.0 - 0.2
27/01:30am 26.7 29.4 23.4 82 2.3 NW 15 19 8 10 1007.4 - 0.2
27/01:00am 26.7 29.6 23.2 81 2.4 NW 13 19 7 10 1007.7 - 0.2
27/12:30am 26.7 30.7 23.8 84 2.0 WNW 9 13 5 7 1007.8 - 0.2
27/12:00am 27.3 31.5 23.5 80 2.6 N 7 11 4 6 1008.1 1007.2 0.2
 
Date/Time
CST
Temp
°C
App
Temp
°C
Dew
Point
Rel
Hum
%
Delta-T
°C
Wind Press
QNH
hPa
Press
MSL
hPa
Rain
since 9 am
mm
Dir
 
Spd
km/h
Gust
km/h
Spd
kts
Gust
kts
26/11:30pm 27.6 32.3 24.0 81 2.5 N 6 9 3 5 1008.1 - 0.2
26/11:00pm 27.7 32.3 24.1 81 2.5 N 7 11 4 6 1008.2 - 0.2
26/10:30pm 27.9 32.1 24.1 80 2.6 N 9 11 5 6 1007.9 - 0.2
26/10:00pm 28.2 32.8 24.2 79 2.8 N 7 9 4 5 1007.6 - 0.2
26/09:30pm 28.9 33.4 24.0 75 3.4 N 7 11 4 6 1007.5 - 0.2
26/09:00pm 28.9 33.2 24.2 76 3.3 N 9 11 5 6 1006.9 1006.0 0.2
26/08:30pm 30.0 34.3 23.7 69 4.4 N 7 9 4 5 1006.6 - 0.2
26/08:00pm 30.0 33.8 23.4 67 4.6 N 9 13 5 7 1006.0 - 0.2
26/07:30pm 30.1 33.5 23.3 67 4.7 NNW 11 13 6 7 1005.9 - 0.2
26/07:00pm 30.9 34.6 23.3 64 5.3 NNW 9 11 5 6 1005.5 - 0.2
26/06:30pm 32.1 35.0 23.1 59 6.2 NNW 13 19 7 10 1005.1 - 0.2
26/06:00pm 32.7 35.9 23.1 57 6.7 NNW 11 13 6 7 1004.8 1003.8 0.2
26/05:30pm 33.0 36.5 23.6 57 6.6 NNW 11 17 6 9 1004.6 - 0.2
26/05:00pm 33.2 36.8 23.8 57 6.6 NW 11 17 6 9 1004.6 - 0.2
26/04:30pm 32.6 36.0 22.7 56 6.8 NW 9 13 5 7 1004.6 - 0.2
26/04:00pm 32.7 35.8 22.8 56 6.8 NW 11 17 6 9 1004.8 - 0.2
26/03:30pm 32.9 36.5 22.4 54 7.2 NW 7 11 4 6 1005.5 - 0.2
26/03:00pm 32.9 35.5 22.7 55 7.1 NNW 13 20 7 11 1005.5 1004.5 0.2
26/02:30pm 33.0 35.6 22.7 54 7.1 NW 13 19 7 10 1005.5 - 0.2
26/02:00pm 32.7 35.9 23.1 57 6.7 NW 11 19 6 10 1006.0 - 0.2
26/01:30pm 32.7 36.2 22.8 56 6.8 W 9 19 5 10 1006.4 - 0.2
26/01:00pm 32.6 36.2 23.0 57 6.6 S 9 13 5 7 1007.4 - 0.2
26/12:30pm 32.4 36.7 23.6 59 6.1 SW 7 13 4 7 1008.2 - 0.2
26/12:00pm 31.6 35.5 22.9 60 6.0 WSW 7 15 4 8 1008.7 1007.7 0.2
26/11:30am 31.0 35.0 23.1 63 5.5 WSW 7 13 4 7 1009.3 - 0.2
26/11:00am 30.1 34.1 22.8 65 5.0 WSW 6 9 3 5 1009.6 - 0.2
26/10:30am 29.4 33.5 23.3 69 4.2 WSW 7 11 4 6 1009.6 - 0.2
26/10:00am 27.9 32.4 23.7 78 2.9 NW 6 9 3 5 1009.6 - 0.0
26/09:30am 27.1 31.7 24.2 84 2.0 NNW 7 11 4 6 1009.6 - 0.0
26/09:00am 25.9 30.4 23.9 89 1.4 WNW 7 9 4 5 1009.6 1008.6 0.8
26/08:30am 24.9 29.7 23.5 92 1.0 NW 4 7 2 4 1009.4 - 0.8
26/08:00am 24.3 29.4 23.3 94 0.7 WSW 2 6 1 3 1009.3 - 0.8
26/07:37am 24.1 28.3 23.2 95 0.6 SSW 6 7 3 4 1009.1 - 0.8
26/07:30am 24.0 28.2 23.1 95 0.6 SW 6 7 3 4 1009.0 - 0.8
26/07:00am 23.6 27.7 22.9 96 0.5 WNW 6 7 3 4 1008.6 - 0.8
26/06:52am 23.7 27.8 23.0 96 0.5 WSW 6 7 3 4 1008.5 - 0.8
26/06:34am 23.7 27.8 23.0 96 0.5 W 6 7 3 4 1008.0 - 0.8
26/06:30am 23.8 28.0 23.1 96 0.5 W 6 9 3 5 1008.0 - 0.8
26/06:00am 23.8 27.4 23.1 96 0.5 WNW 9 9 5 5 1007.7 1006.8 0.8
26/05:45am 23.9 29.3 23.2 96 0.5 CALM 0 6 0 3 1007.7 - 0.8
26/05:30am 23.9 29.3 23.2 96 0.5 CALM 0 - 0 - 1007.6 - 0.8
26/05:15am 23.8 28.0 23.1 96 0.5 W 6 7 3 4 1007.2 - 0.8
26/05:00am 23.8 28.4 23.1 96 0.5 NW 4 7 2 4 1007.0 - 0.8
26/04:54am 23.8 28.0 23.1 96 0.5 WNW 6 7 3 4 1006.9 - 0.8
26/04:30am 23.9 27.6 23.2 96 0.5 NW 9 13 5 7 1006.7 - 0.8
26/04:27am 23.9 27.6 23.2 96 0.5 NW 9 13 5 7 1006.7 - 0.8
26/04:12am 24.0 28.1 23.3 96 0.5 NW 7 9 4 5 1006.9 - 0.8
26/04:00am 23.9 28.1 23.2 96 0.5 NW 6 9 3 5 1006.9 - 0.8
26/03:53am 23.9 28.5 23.2 96 0.5 NW 4 9 2 5 1007.1 - 0.8
26/03:52am 23.9 28.1 23.2 96 0.5 NNW 6 9 3 5 1007.1 - 0.8
26/03:30am 24.0 28.0 23.1 95 0.6 NNW 7 9 4 5 1007.0 - 0.8
26/03:00am 24.0 27.6 23.1 95 0.6 NW 9 13 5 7 1007.2 1006.3 0.8
26/02:30am 24.3 29.7 23.3 94 0.7 CALM 0 0 0 0 1007.5 - 0.8
26/02:00am 24.2 29.2 23.2 94 0.7 ESE 2 6 1 3 1008.0 - 0.8
26/01:30am 24.4 28.8 23.4 94 0.7 NE 6 7 3 4 1008.0 - 0.8
26/01:00am 24.6 29.0 23.4 93 0.8 NNE 6 7 3 4 1008.3 - 0.8
26/12:30am 24.8 29.3 23.6 93 0.8 N 6 7 3 4 1008.5 - 0.8
26/12:00am 24.8 29.9 23.4 92 1.0 N 2 6 1 3 1008.8 1007.8 0.8
 
Date/Time
CST
Temp
°C
App
Temp
°C
Dew
Point
Rel
Hum
%
Delta-T
°C
Wind Press
QNH
hPa
Press
MSL
hPa
Rain
since 9 am
mm
Dir
 
Spd
km/h
Gust
km/h
Spd
kts
Gust
kts
25/11:30pm 24.9 29.7 23.5 92 1.0 W 4 9 2 5 1009.5 - 0.8
25/11:00pm 25.0 29.3 23.6 92 1.0 S 7 11 4 6 1009.6 - 0.8
25/10:30pm 24.9 28.5 23.7 93 0.8 SSW 11 13 6 7 1009.7 - 0.8
25/10:00pm 25.1 30.3 23.5 91 1.1 N 2 6 1 3 1009.6 - 0.8

Other Formats:

Comma delimited format used in spreadsheet applications
http://www.bom.gov.au/fwo/IDD60801/IDD60801.94131.axf

JavaScript Object Notation format (JSON) in row-major order
http://www.bom.gov.au/fwo/IDD60801/IDD60801.94131.json